Strona główna
METAR-TAF:

METAR-TAF

Lotnisko :

Edenton, Karolina Północna, Stany Zjednoczone

Szerokość geograficzna: 36-01-40N, Długość geograficzna: 076-34-02W, wysokość: 6 m

Aktualna obserwacja pogody

Raport powstał 10 minut temu, godzina 22:15 UTC
Wiatr 4 kt od zachód
Temperatura 30°C
Wilgotność 66%
Ciśnienie 1012 hPa
Widzialność: 16.1 km
Przerywane chmury na wysokości 10000 ft
Przerywane chmury na wysokości 12000 ft

METAR: KEDE 302215Z AUTO 27004KT 10SM BKN100 BKN120 30/23 A2989 RMK AO2 T02950233

czas: 18:25 (22:25 UTC)


TAF: brakujący

Obserwacja i prognoza pogody dla ponad 4000 lotnisk (raport METAR i TAF).

Dostępne stacje oznaczono żółtymi i czerwonymi punktami na mapie.

Najedź kursorem aby zobaczyć nazwę stacji.

Kliknij aby zobaczyć obserwacje i prognozy pogody.

Aby zmienić mapę: kliknij na zielony przycisk z czarnym krzyżykiem, aby powiększyć; na zielony przycisk z myślnikiem, aby pomniejszyć; na zielone strzałki, aby przejść do map sąsiednich.


METAR-TAF: